sensor_id;sensor_type;location;lat;lon;timestamp;P1;durP1;ratioP1;P2;durP2;ratioP2
35993;SDS011;22066;54.274;18.578;2022-10-16T00:01:04;83.15;;;35.63;;
35993;SDS011;22066;54.274;18.578;2022-10-16T00:03:30;72.78;;;30.73;;
35993;SDS011;22066;54.274;18.578;2022-10-16T00:05:58;83.45;;;36.60;;
35993;SDS011;22066;54.274;18.578;2022-10-16T00:08:24;79.68;;;34.50;;
35993;SDS011;22066;54.274;18.578;2022-10-16T00:10:50;94.22;;;36.30;;
35993;SDS011;22066;54.274;18.578;2022-10-16T00:13:17;96.25;;;37.25;;
35993;SDS011;22066;54.274;18.578;2022-10-16T00:15:44;74.03;;;28.13;;
35993;SDS011;22066;54.274;18.578;2022-10-16T00:18:11;89.65;;;35.53;;
35993;SDS011;22066;54.274;18.578;2022-10-16T00:20:39;97.13;;;37.35;;
35993;SDS011;22066;54.274;18.578;2022-10-16T00:23:05;90.75;;;37.00;;
35993;SDS011;22066;54.274;18.578;2022-10-16T00:25:32;100.65;;;38.92;;
35993;SDS011;22066;54.274;18.578;2022-10-16T00:27:59;98.35;;;37.08;;
35993;SDS011;22066;54.274;18.578;2022-10-16T00:30:25;101.35;;;36.35;;
35993;SDS011;22066;54.274;18.578;2022-10-16T00:32:53;101.47;;;38.30;;
35993;SDS011;22066;54.274;18.578;2022-10-16T00:35:19;91.45;;;36.75;;
35993;SDS011;22066;54.274;18.578;2022-10-16T00:37:45;95.13;;;37.78;;
35993;SDS011;22066;54.274;18.578;2022-10-16T00:40:11;95.47;;;34.92;;
35993;SDS011;22066;54.274;18.578;2022-10-16T00:42:37;104.95;;;37.17;;
35993;SDS011;22066;54.274;18.578;2022-10-16T00:45:03;110.53;;;38.75;;
35993;SDS011;22066;54.274;18.578;2022-10-16T00:47:37;81.32;;;32.58;;
35993;SDS011;22066;54.274;18.578;2022-10-16T00:50:18;89.45;;;34.70;;
35993;SDS011;22066;54.274;18.578;2022-10-16T00:52:48;83.65;;;31.70;;
35993;SDS011;22066;54.274;18.578;2022-10-16T00:55:15;81.60;;;30.43;;
35993;SDS011;22066;54.274;18.578;2022-10-16T00:57:42;60.08;;;24.88;;
35993;SDS011;22066;54.274;18.578;2022-10-16T01:00:09;63.35;;;23.92;;
35993;SDS011;22066;54.274;18.578;2022-10-16T01:02:35;74.35;;;26.90;;
35993;SDS011;22066;54.274;18.578;2022-10-16T01:05:02;64.63;;;24.95;;
35993;SDS011;22066;54.274;18.578;2022-10-16T01:07:36;65.03;;;27.40;;
35993;SDS011;22066;54.274;18.578;2022-10-16T01:15:10;58.08;;;24.85;;
35993;SDS011;22066;54.274;18.578;2022-10-16T01:22:56;51.70;;;22.45;;
35993;SDS011;22066;54.274;18.578;2022-10-16T01:25:47;59.80;;;23.38;;
35993;SDS011;22066;54.274;18.578;2022-10-16T01:28:10;65.25;;;22.02;;
35993;SDS011;22066;54.274;18.578;2022-10-16T01:30:37;67.72;;;23.33;;
35993;SDS011;22066;54.274;18.578;2022-10-16T01:35:36;59.10;;;22.50;;
35993;SDS011;22066;54.274;18.578;2022-10-16T01:38:23;75.47;;;24.42;;
35993;SDS011;22066;54.274;18.578;2022-10-16T01:40:57;77.38;;;24.92;;
35993;SDS011;22066;54.274;18.578;2022-10-16T01:43:25;90.15;;;27.00;;
35993;SDS011;22066;54.274;18.578;2022-10-16T01:48:19;64.82;;;23.40;;
35993;SDS011;22066;54.274;18.578;2022-10-16T01:50:49;64.40;;;23.77;;
35993;SDS011;22066;54.274;18.578;2022-10-16T01:53:16;69.90;;;24.83;;
35993;SDS011;22066;54.274;18.578;2022-10-16T01:55:44;55.72;;;21.73;;
35993;SDS011;22066;54.274;18.578;2022-10-16T01:58:12;62.15;;;22.88;;
35993;SDS011;22066;54.274;18.578;2022-10-16T02:00:39;48.30;;;19.33;;
35993;SDS011;22066;54.274;18.578;2022-10-16T02:05:46;43.65;;;18.40;;
35993;SDS011;22066;54.274;18.578;2022-10-16T02:08:12;41.90;;;16.95;;
35993;SDS011;22066;54.274;18.578;2022-10-16T02:10:39;45.20;;;19.45;;
35993;SDS011;22066;54.274;18.578;2022-10-16T02:14:06;43.88;;;18.98;;
35993;SDS011;22066;54.274;18.578;2022-10-16T02:16:00;34.00;;;16.88;;
35993;SDS011;22066;54.274;18.578;2022-10-16T02:18:26;36.63;;;17.20;;
35993;SDS011;22066;54.274;18.578;2022-10-16T02:26:09;30.42;;;14.57;;
35993;SDS011;22066;54.274;18.578;2022-10-16T02:28:45;28.33;;;14.25;;
35993;SDS011;22066;54.274;18.578;2022-10-16T02:31:16;30.50;;;14.85;;
35993;SDS011;22066;54.274;18.578;2022-10-16T02:33:44;26.60;;;14.02;;
35993;SDS011;22066;54.274;18.578;2022-10-16T02:36:11;29.08;;;14.32;;
35993;SDS011;22066;54.274;18.578;2022-10-16T02:38:38;30.13;;;14.43;;
35993;SDS011;22066;54.274;18.578;2022-10-16T02:41:05;27.00;;;15.10;;
35993;SDS011;22066;54.274;18.578;2022-10-16T02:43:31;26.75;;;14.85;;
35993;SDS011;22066;54.274;18.578;2022-10-16T02:45:58;29.52;;;14.48;;
35993;SDS011;22066;54.274;18.578;2022-10-16T02:48:24;27.25;;;15.05;;
35993;SDS011;22066;54.274;18.578;2022-10-16T02:50:51;22.38;;;12.40;;
35993;SDS011;22066;54.274;18.578;2022-10-16T02:53:17;25.30;;;13.63;;
35993;SDS011;22066;54.274;18.578;2022-10-16T02:55:43;25.25;;;13.55;;
35993;SDS011;22066;54.274;18.578;2022-10-16T02:58:09;27.23;;;13.23;;
35993;SDS011;22066;54.274;18.578;2022-10-16T03:00:35;25.23;;;13.57;;
35993;SDS011;22066;54.274;18.578;2022-10-16T03:03:01;23.75;;;13.50;;
35993;SDS011;22066;54.274;18.578;2022-10-16T03:05:27;26.20;;;14.18;;
35993;SDS011;22066;54.274;18.578;2022-10-16T03:07:53;24.48;;;13.60;;
35993;SDS011;22066;54.274;18.578;2022-10-16T03:10:19;23.63;;;13.98;;
35993;SDS011;22066;54.274;18.578;2022-10-16T03:12:45;28.98;;;16.50;;
35993;SDS011;22066;54.274;18.578;2022-10-16T03:15:11;27.13;;;15.00;;
35993;SDS011;22066;54.274;18.578;2022-10-16T03:17:38;29.95;;;15.45;;
35993;SDS011;22066;54.274;18.578;2022-10-16T03:20:04;25.63;;;14.20;;
35993;SDS011;22066;54.274;18.578;2022-10-16T03:22:30;23.00;;;12.90;;
35993;SDS011;22066;54.274;18.578;2022-10-16T03:24:56;21.88;;;12.38;;
35993;SDS011;22066;54.274;18.578;2022-10-16T03:27:22;24.67;;;13.02;;
35993;SDS011;22066;54.274;18.578;2022-10-16T03:29:48;22.63;;;13.68;;
35993;SDS011;22066;54.274;18.578;2022-10-16T03:32:14;23.67;;;14.57;;
35993;SDS011;22066;54.274;18.578;2022-10-16T03:34:40;27.65;;;14.80;;
35993;SDS011;22066;54.274;18.578;2022-10-16T03:37:06;21.73;;;11.95;;
35993;SDS011;22066;54.274;18.578;2022-10-16T03:39:32;25.27;;;12.55;;
35993;SDS011;22066;54.274;18.578;2022-10-16T03:41:59;25.83;;;13.18;;
35993;SDS011;22066;54.274;18.578;2022-10-16T03:44:25;23.30;;;12.35;;
35993;SDS011;22066;54.274;18.578;2022-10-16T03:46:51;22.52;;;12.15;;
35993;SDS011;22066;54.274;18.578;2022-10-16T03:49:17;25.95;;;13.43;;
35993;SDS011;22066;54.274;18.578;2022-10-16T03:51:43;26.77;;;13.32;;
35993;SDS011;22066;54.274;18.578;2022-10-16T03:54:09;21.90;;;12.45;;
35993;SDS011;22066;54.274;18.578;2022-10-16T03:56:36;25.55;;;13.65;;
35993;SDS011;22066;54.274;18.578;2022-10-16T03:59:02;21.30;;;11.80;;
35993;SDS011;22066;54.274;18.578;2022-10-16T04:01:28;21.30;;;11.48;;
35993;SDS011;22066;54.274;18.578;2022-10-16T04:03:54;24.85;;;12.65;;
35993;SDS011;22066;54.274;18.578;2022-10-16T04:06:20;22.15;;;12.40;;
35993;SDS011;22066;54.274;18.578;2022-10-16T04:08:46;20.85;;;12.35;;
35993;SDS011;22066;54.274;18.578;2022-10-16T04:11:12;24.30;;;13.23;;
35993;SDS011;22066;54.274;18.578;2022-10-16T04:13:39;23.23;;;12.27;;
35993;SDS011;22066;54.274;18.578;2022-10-16T04:16:05;22.30;;;12.02;;
35993;SDS011;22066;54.274;18.578;2022-10-16T04:18:31;27.65;;;13.10;;
35993;SDS011;22066;54.274;18.578;2022-10-16T04:21:01;22.75;;;13.23;;
35993;SDS011;22066;54.274;18.578;2022-10-16T04:23:27;20.55;;;12.30;;
35993;SDS011;22066;54.274;18.578;2022-10-16T04:25:53;23.75;;;14.13;;
35993;SDS011;22066;54.274;18.578;2022-10-16T04:28:19;22.52;;;12.55;;
35993;SDS011;22066;54.274;18.578;2022-10-16T04:30:45;19.33;;;11.40;;
35993;SDS011;22066;54.274;18.578;2022-10-16T04:33:12;26.25;;;13.02;;
35993;SDS011;22066;54.274;18.578;2022-10-16T04:35:38;19.65;;;10.95;;
35993;SDS011;22066;54.274;18.578;2022-10-16T04:38:04;23.70;;;12.63;;
35993;SDS011;22066;54.274;18.578;2022-10-16T04:40:30;25.70;;;12.52;;
35993;SDS011;22066;54.274;18.578;2022-10-16T04:42:58;27.87;;;14.13;;
35993;SDS011;22066;54.274;18.578;2022-10-16T04:45:24;22.58;;;12.75;;
35993;SDS011;22066;54.274;18.578;2022-10-16T04:47:50;26.00;;;13.82;;
35993;SDS011;22066;54.274;18.578;2022-10-16T04:50:16;28.45;;;15.13;;
35993;SDS011;22066;54.274;18.578;2022-10-16T04:52:42;31.17;;;14.38;;
35993;SDS011;22066;54.274;18.578;2022-10-16T04:55:08;30.33;;;16.13;;
35993;SDS011;22066;54.274;18.578;2022-10-16T04:57:35;30.25;;;15.60;;
35993;SDS011;22066;54.274;18.578;2022-10-16T05:00:01;32.20;;;15.65;;
35993;SDS011;22066;54.274;18.578;2022-10-16T05:02:28;28.83;;;14.95;;
35993;SDS011;22066;54.274;18.578;2022-10-16T05:04:54;29.92;;;15.73;;
35993;SDS011;22066;54.274;18.578;2022-10-16T05:07:20;26.30;;;13.98;;
35993;SDS011;22066;54.274;18.578;2022-10-16T05:09:46;31.02;;;14.98;;
35993;SDS011;22066;54.274;18.578;2022-10-16T05:12:12;32.38;;;16.20;;
35993;SDS011;22066;54.274;18.578;2022-10-16T05:14:38;34.05;;;15.85;;
35993;SDS011;22066;54.274;18.578;2022-10-16T05:17:04;30.30;;;16.20;;
35993;SDS011;22066;54.274;18.578;2022-10-16T05:19:30;31.55;;;16.50;;
35993;SDS011;22066;54.274;18.578;2022-10-16T05:21:56;30.95;;;15.68;;
35993;SDS011;22066;54.274;18.578;2022-10-16T05:24:22;30.50;;;16.75;;
35993;SDS011;22066;54.274;18.578;2022-10-16T05:26:49;32.25;;;17.48;;
35993;SDS011;22066;54.274;18.578;2022-10-16T05:29:15;32.30;;;17.45;;
35993;SDS011;22066;54.274;18.578;2022-10-16T05:31:41;30.98;;;17.17;;
35993;SDS011;22066;54.274;18.578;2022-10-16T05:34:07;33.65;;;18.40;;
35993;SDS011;22066;54.274;18.578;2022-10-16T05:36:33;35.08;;;17.90;;
35993;SDS011;22066;54.274;18.578;2022-10-16T05:39:00;35.92;;;18.55;;
35993;SDS011;22066;54.274;18.578;2022-10-16T05:41:26;34.58;;;17.27;;
35993;SDS011;22066;54.274;18.578;2022-10-16T05:43:52;35.22;;;18.33;;
35993;SDS011;22066;54.274;18.578;2022-10-16T05:46:18;32.38;;;17.95;;
35993;SDS011;22066;54.274;18.578;2022-10-16T05:48:44;34.80;;;18.90;;
35993;SDS011;22066;54.274;18.578;2022-10-16T05:51:11;34.95;;;18.23;;
35993;SDS011;22066;54.274;18.578;2022-10-16T05:53:38;37.90;;;20.25;;
35993;SDS011;22066;54.274;18.578;2022-10-16T05:56:05;32.67;;;18.38;;
35993;SDS011;22066;54.274;18.578;2022-10-16T05:58:32;32.95;;;19.02;;
35993;SDS011;22066;54.274;18.578;2022-10-16T06:01:00;38.55;;;18.80;;
35993;SDS011;22066;54.274;18.578;2022-10-16T06:03:26;39.50;;;19.38;;
35993;SDS011;22066;54.274;18.578;2022-10-16T06:05:52;37.35;;;20.42;;
35993;SDS011;22066;54.274;18.578;2022-10-16T06:08:19;34.90;;;18.88;;
35993;SDS011;22066;54.274;18.578;2022-10-16T06:10:46;33.05;;;18.00;;
35993;SDS011;22066;54.274;18.578;2022-10-16T06:13:13;35.28;;;18.80;;
35993;SDS011;22066;54.274;18.578;2022-10-16T06:15:40;33.58;;;19.73;;
35993;SDS011;22066;54.274;18.578;2022-10-16T06:18:07;35.00;;;19.35;;
35993;SDS011;22066;54.274;18.578;2022-10-16T06:20:33;34.92;;;19.08;;
35993;SDS011;22066;54.274;18.578;2022-10-16T06:22:59;35.78;;;19.25;;
35993;SDS011;22066;54.274;18.578;2022-10-16T06:25:25;31.10;;;18.08;;
35993;SDS011;22066;54.274;18.578;2022-10-16T06:27:51;35.20;;;19.88;;
35993;SDS011;22066;54.274;18.578;2022-10-16T06:30:17;32.33;;;18.83;;
35993;SDS011;22066;54.274;18.578;2022-10-16T06:32:43;38.30;;;19.63;;
35993;SDS011;22066;54.274;18.578;2022-10-16T06:35:09;38.20;;;19.63;;
35993;SDS011;22066;54.274;18.578;2022-10-16T06:37:35;34.45;;;18.60;;
35993;SDS011;22066;54.274;18.578;2022-10-16T06:40:02;31.17;;;17.33;;
35993;SDS011;22066;54.274;18.578;2022-10-16T06:42:29;36.50;;;18.90;;
35993;SDS011;22066;54.274;18.578;2022-10-16T06:44:55;36.40;;;19.73;;
35993;SDS011;22066;54.274;18.578;2022-10-16T06:47:21;32.65;;;17.88;;
35993;SDS011;22066;54.274;18.578;2022-10-16T06:49:48;33.55;;;19.30;;
35993;SDS011;22066;54.274;18.578;2022-10-16T06:52:14;31.83;;;18.90;;
35993;SDS011;22066;54.274;18.578;2022-10-16T06:54:40;38.03;;;17.60;;
35993;SDS011;22066;54.274;18.578;2022-10-16T06:57:06;35.15;;;19.05;;
35993;SDS011;22066;54.274;18.578;2022-10-16T06:59:32;30.33;;;17.60;;
35993;SDS011;22066;54.274;18.578;2022-10-16T07:01:58;32.83;;;17.77;;
35993;SDS011;22066;54.274;18.578;2022-10-16T07:04:24;34.72;;;18.63;;
35993;SDS011;22066;54.274;18.578;2022-10-16T07:06:50;33.85;;;18.20;;
35993;SDS011;22066;54.274;18.578;2022-10-16T07:09:16;32.13;;;17.80;;
35993;SDS011;22066;54.274;18.578;2022-10-16T07:11:42;32.38;;;18.90;;
35993;SDS011;22066;54.274;18.578;2022-10-16T07:14:15;33.15;;;18.98;;
35993;SDS011;22066;54.274;18.578;2022-10-16T07:16:42;29.30;;;16.42;;
35993;SDS011;22066;54.274;18.578;2022-10-16T07:19:08;33.83;;;18.25;;
35993;SDS011;22066;54.274;18.578;2022-10-16T07:21:36;31.30;;;19.80;;
35993;SDS011;22066;54.274;18.578;2022-10-16T07:24:04;29.63;;;16.98;;
35993;SDS011;22066;54.274;18.578;2022-10-16T07:26:31;31.38;;;18.08;;
35993;SDS011;22066;54.274;18.578;2022-10-16T07:28:58;35.22;;;18.90;;
35993;SDS011;22066;54.274;18.578;2022-10-16T07:31:25;34.58;;;19.30;;
35993;SDS011;22066;54.274;18.578;2022-10-16T07:33:52;32.95;;;17.95;;
35993;SDS011;22066;54.274;18.578;2022-10-16T07:36:18;29.75;;;17.27;;
35993;SDS011;22066;54.274;18.578;2022-10-16T07:38:45;30.75;;;17.08;;
35993;SDS011;22066;54.274;18.578;2022-10-16T07:41:12;32.92;;;17.92;;
35993;SDS011;22066;54.274;18.578;2022-10-16T07:43:39;29.00;;;16.42;;
35993;SDS011;22066;54.274;18.578;2022-10-16T07:46:05;29.85;;;16.42;;
35993;SDS011;22066;54.274;18.578;2022-10-16T07:48:32;30.58;;;18.48;;
35993;SDS011;22066;54.274;18.578;2022-10-16T07:51:03;31.90;;;17.65;;
35993;SDS011;22066;54.274;18.578;2022-10-16T07:53:30;29.42;;;17.00;;
35993;SDS011;22066;54.274;18.578;2022-10-16T07:55:59;30.35;;;16.52;;
35993;SDS011;22066;54.274;18.578;2022-10-16T07:58:26;29.42;;;16.02;;
35993;SDS011;22066;54.274;18.578;2022-10-16T08:00:52;32.95;;;17.58;;
35993;SDS011;22066;54.274;18.578;2022-10-16T08:03:18;30.25;;;17.60;;
35993;SDS011;22066;54.274;18.578;2022-10-16T08:05:45;30.90;;;16.77;;
35993;SDS011;22066;54.274;18.578;2022-10-16T08:08:12;27.75;;;15.57;;
35993;SDS011;22066;54.274;18.578;2022-10-16T08:10:38;29.08;;;16.63;;
35993;SDS011;22066;54.274;18.578;2022-10-16T08:13:05;26.90;;;15.88;;
35993;SDS011;22066;54.274;18.578;2022-10-16T08:15:31;31.08;;;17.00;;
35993;SDS011;22066;54.274;18.578;2022-10-16T08:18:01;31.85;;;17.63;;
35993;SDS011;22066;54.274;18.578;2022-10-16T08:20:27;31.42;;;17.17;;
35993;SDS011;22066;54.274;18.578;2022-10-16T08:22:54;28.98;;;17.30;;
35993;SDS011;22066;54.274;18.578;2022-10-16T08:25:21;31.63;;;17.45;;
35993;SDS011;22066;54.274;18.578;2022-10-16T08:27:47;32.67;;;16.33;;
35993;SDS011;22066;54.274;18.578;2022-10-16T08:30:13;28.75;;;15.93;;
35993;SDS011;22066;54.274;18.578;2022-10-16T08:32:40;31.55;;;17.02;;
35993;SDS011;22066;54.274;18.578;2022-10-16T08:35:09;31.48;;;16.52;;
35993;SDS011;22066;54.274;18.578;2022-10-16T08:37:35;27.73;;;16.50;;
35993;SDS011;22066;54.274;18.578;2022-10-16T08:40:02;29.90;;;18.38;;
35993;SDS011;22066;54.274;18.578;2022-10-16T08:47:29;29.75;;;16.27;;
35993;SDS011;22066;54.274;18.578;2022-10-16T08:50:02;26.95;;;15.50;;
35993;SDS011;22066;54.274;18.578;2022-10-16T08:52:34;29.17;;;16.23;;
35993;SDS011;22066;54.274;18.578;2022-10-16T08:55:01;30.13;;;15.27;;
35993;SDS011;22066;54.274;18.578;2022-10-16T08:57:28;28.13;;;16.40;;
35993;SDS011;22066;54.274;18.578;2022-10-16T08:59:57;32.58;;;16.23;;
35993;SDS011;22066;54.274;18.578;2022-10-16T09:02:38;25.88;;;15.32;;
35993;SDS011;22066;54.274;18.578;2022-10-16T09:10:25;27.85;;;15.73;;
35993;SDS011;22066;54.274;18.578;2022-10-16T09:12:58;25.55;;;14.82;;
35993;SDS011;22066;54.274;18.578;2022-10-16T09:15:33;31.83;;;17.92;;
35993;SDS011;22066;54.274;18.578;2022-10-16T09:20:28;25.50;;;14.05;;
35993;SDS011;22066;54.274;18.578;2022-10-16T09:23:40;29.63;;;14.88;;
35993;SDS011;22066;54.274;18.578;2022-10-16T09:25:43;25.48;;;13.88;;
35993;SDS011;22066;54.274;18.578;2022-10-16T09:28:09;26.85;;;14.50;;
35993;SDS011;22066;54.274;18.578;2022-10-16T09:30:36;24.10;;;14.25;;
35993;SDS011;22066;54.274;18.578;2022-10-16T09:33:04;30.10;;;15.73;;
35993;SDS011;22066;54.274;18.578;2022-10-16T09:35:38;28.52;;;14.98;;
35993;SDS011;22066;54.274;18.578;2022-10-16T09:38:04;25.00;;;15.70;;
35993;SDS011;22066;54.274;18.578;2022-10-16T09:40:37;24.92;;;14.27;;
35993;SDS011;22066;54.274;18.578;2022-10-16T09:46:03;25.13;;;13.70;;
35993;SDS011;22066;54.274;18.578;2022-10-16T09:48:51;24.50;;;13.48;;
35993;SDS011;22066;54.274;18.578;2022-10-16T09:51:19;23.80;;;12.77;;
35993;SDS011;22066;54.274;18.578;2022-10-16T09:53:46;20.75;;;12.43;;
35993;SDS011;22066;54.274;18.578;2022-10-16T09:56:20;22.05;;;12.70;;
35993;SDS011;22066;54.274;18.578;2022-10-16T09:58:54;21.23;;;11.88;;
35993;SDS011;22066;54.274;18.578;2022-10-16T10:01:20;23.10;;;12.68;;
35993;SDS011;22066;54.274;18.578;2022-10-16T10:03:47;19.77;;;11.70;;
35993;SDS011;22066;54.274;18.578;2022-10-16T10:06:18;25.77;;;12.07;;
35993;SDS011;22066;54.274;18.578;2022-10-16T10:08:54;19.45;;;11.73;;
35993;SDS011;22066;54.274;18.578;2022-10-16T10:14:06;20.83;;;11.85;;
35993;SDS011;22066;54.274;18.578;2022-10-16T10:16:34;19.13;;;10.88;;
35993;SDS011;22066;54.274;18.578;2022-10-16T10:19:00;19.45;;;12.20;;
35993;SDS011;22066;54.274;18.578;2022-10-16T10:21:27;22.67;;;11.77;;
35993;SDS011;22066;54.274;18.578;2022-10-16T10:23:55;19.40;;;12.20;;
35993;SDS011;22066;54.274;18.578;2022-10-16T10:26:23;23.13;;;12.55;;
35993;SDS011;22066;54.274;18.578;2022-10-16T10:33:59;17.95;;;10.38;;
35993;SDS011;22066;54.274;18.578;2022-10-16T10:49:16;20.80;;;12.00;;
35993;SDS011;22066;54.274;18.578;2022-10-16T10:57:02;24.08;;;11.43;;
35993;SDS011;22066;54.274;18.578;2022-10-16T11:02:10;24.40;;;13.18;;
35993;SDS011;22066;54.274;18.578;2022-10-16T11:07:05;20.08;;;12.15;;
35993;SDS011;22066;54.274;18.578;2022-10-16T11:09:42;27.58;;;13.55;;
35993;SDS011;22066;54.274;18.578;2022-10-16T11:17:39;20.42;;;12.07;;
35993;SDS011;22066;54.274;18.578;2022-10-16T11:22:37;24.40;;;12.13;;
35993;SDS011;22066;54.274;18.578;2022-10-16T11:25:11;22.55;;;13.05;;
35993;SDS011;22066;54.274;18.578;2022-10-16T11:30:15;18.98;;;11.52;;
35993;SDS011;22066;54.274;18.578;2022-10-16T11:35:19;18.92;;;11.00;;
35993;SDS011;22066;54.274;18.578;2022-10-16T11:37:47;20.42;;;11.73;;
35993;SDS011;22066;54.274;18.578;2022-10-16T11:40:18;20.33;;;11.02;;
35993;SDS011;22066;54.274;18.578;2022-10-16T11:42:48;19.27;;;10.68;;
35993;SDS011;22066;54.274;18.578;2022-10-16T11:48:03;19.00;;;11.75;;
35993;SDS011;22066;54.274;18.578;2022-10-16T11:50:34;17.30;;;11.30;;
35993;SDS011;22066;54.274;18.578;2022-10-16T11:55:47;22.88;;;10.55;;
35993;SDS011;22066;54.274;18.578;2022-10-16T11:58:21;17.48;;;10.85;;
35993;SDS011;22066;54.274;18.578;2022-10-16T12:00:57;16.77;;;9.88;;
35993;SDS011;22066;54.274;18.578;2022-10-16T12:03:29;15.65;;;10.10;;
35993;SDS011;22066;54.274;18.578;2022-10-16T12:08:22;15.02;;;9.52;;
35993;SDS011;22066;54.274;18.578;2022-10-16T12:10:51;14.02;;;8.57;;
35993;SDS011;22066;54.274;18.578;2022-10-16T12:13:34;12.70;;;8.65;;
35993;SDS011;22066;54.274;18.578;2022-10-16T12:16:36;15.57;;;9.43;;
35993;SDS011;22066;54.274;18.578;2022-10-16T12:21:49;14.63;;;8.88;;
35993;SDS011;22066;54.274;18.578;2022-10-16T12:24:20;13.23;;;8.30;;
35993;SDS011;22066;54.274;18.578;2022-10-16T12:26:47;13.82;;;8.90;;
35993;SDS011;22066;54.274;18.578;2022-10-16T12:31:53;12.45;;;7.75;;
35993;SDS011;22066;54.274;18.578;2022-10-16T12:34:21;13.73;;;8.55;;
35993;SDS011;22066;54.274;18.578;2022-10-16T12:36:48;10.68;;;6.80;;
35993;SDS011;22066;54.274;18.578;2022-10-16T12:39:22;15.55;;;8.77;;
35993;SDS011;22066;54.274;18.578;2022-10-16T12:41:59;12.10;;;7.72;;
35993;SDS011;22066;54.274;18.578;2022-10-16T12:44:26;9.70;;;7.20;;
35993;SDS011;22066;54.274;18.578;2022-10-16T12:46:57;11.90;;;7.55;;
35993;SDS011;22066;54.274;18.578;2022-10-16T12:49:36;12.60;;;6.70;;
35993;SDS011;22066;54.274;18.578;2022-10-16T12:52:03;11.98;;;7.75;;
35993;SDS011;22066;54.274;18.578;2022-10-16T13:10:08;13.38;;;5.90;;
35993;SDS011;22066;54.274;18.578;2022-10-16T13:12:45;9.50;;;6.15;;
35993;SDS011;22066;54.274;18.578;2022-10-16T13:18:00;9.23;;;6.28;;
35993;SDS011;22066;54.274;18.578;2022-10-16T13:21:13;9.63;;;5.82;;
35993;SDS011;22066;54.274;18.578;2022-10-16T13:26:09;9.35;;;5.70;;
35993;SDS011;22066;54.274;18.578;2022-10-16T13:28:37;10.85;;;5.90;;
35993;SDS011;22066;54.274;18.578;2022-10-16T13:31:04;11.07;;;6.38;;
35993;SDS011;22066;54.274;18.578;2022-10-16T13:35:59;14.15;;;7.10;;
35993;SDS011;22066;54.274;18.578;2022-10-16T13:38:26;10.48;;;6.38;;
35993;SDS011;22066;54.274;18.578;2022-10-16T13:40:57;14.30;;;6.05;;
35993;SDS011;22066;54.274;18.578;2022-10-16T13:43:43;11.68;;;6.25;;
35993;SDS011;22066;54.274;18.578;2022-10-16T13:46:17;14.57;;;6.95;;
35993;SDS011;22066;54.274;18.578;2022-10-16T13:48:44;9.27;;;5.78;;
35993;SDS011;22066;54.274;18.578;2022-10-16T13:51:14;9.73;;;6.18;;
35993;SDS011;22066;54.274;18.578;2022-10-16T13:53:40;9.07;;;6.00;;
35993;SDS011;22066;54.274;18.578;2022-10-16T13:56:07;12.85;;;6.53;;
35993;SDS011;22066;54.274;18.578;2022-10-16T13:58:35;11.55;;;6.25;;
35993;SDS011;22066;54.274;18.578;2022-10-16T14:01:02;10.25;;;6.90;;
35993;SDS011;22066;54.274;18.578;2022-10-16T14:03:30;17.73;;;7.28;;
35993;SDS011;22066;54.274;18.578;2022-10-16T14:06:00;11.57;;;6.93;;
35993;SDS011;22066;54.274;18.578;2022-10-16T14:08:27;11.10;;;7.32;;
35993;SDS011;22066;54.274;18.578;2022-10-16T14:10:55;11.90;;;7.22;;
35993;SDS011;22066;54.274;18.578;2022-10-16T14:13:43;15.07;;;8.43;;
35993;SDS011;22066;54.274;18.578;2022-10-16T14:16:16;12.65;;;7.57;;
35993;SDS011;22066;54.274;18.578;2022-10-16T14:18:44;12.57;;;7.75;;
35993;SDS011;22066;54.274;18.578;2022-10-16T14:21:14;11.07;;;7.15;;
35993;SDS011;22066;54.274;18.578;2022-10-16T14:23:42;11.82;;;7.22;;
35993;SDS011;22066;54.274;18.578;2022-10-16T14:28:35;12.45;;;7.65;;
35993;SDS011;22066;54.274;18.578;2022-10-16T14:31:02;13.52;;;7.55;;
35993;SDS011;22066;54.274;18.578;2022-10-16T14:35:59;13.70;;;7.35;;
35993;SDS011;22066;54.274;18.578;2022-10-16T14:38:25;14.27;;;7.50;;
35993;SDS011;22066;54.274;18.578;2022-10-16T14:40:51;10.82;;;7.05;;
35993;SDS011;22066;54.274;18.578;2022-10-16T14:43:22;11.52;;;7.30;;
35993;SDS011;22066;54.274;18.578;2022-10-16T14:45:52;12.45;;;7.32;;
35993;SDS011;22066;54.274;18.578;2022-10-16T14:48:18;11.05;;;7.43;;
35993;SDS011;22066;54.274;18.578;2022-10-16T14:50:45;15.15;;;8.23;;
35993;SDS011;22066;54.274;18.578;2022-10-16T14:53:12;10.05;;;7.13;;
35993;SDS011;22066;54.274;18.578;2022-10-16T14:55:38;11.95;;;6.65;;
35993;SDS011;22066;54.274;18.578;2022-10-16T14:58:05;10.70;;;6.88;;
35993;SDS011;22066;54.274;18.578;2022-10-16T15:00:31;9.85;;;6.60;;
35993;SDS011;22066;54.274;18.578;2022-10-16T15:02:57;14.65;;;6.55;;
35993;SDS011;22066;54.274;18.578;2022-10-16T15:05:24;9.43;;;6.47;;
35993;SDS011;22066;54.274;18.578;2022-10-16T15:07:51;9.57;;;6.88;;
35993;SDS011;22066;54.274;18.578;2022-10-16T15:10:18;11.13;;;6.60;;
35993;SDS011;22066;54.274;18.578;2022-10-16T15:12:45;9.63;;;6.22;;
35993;SDS011;22066;54.274;18.578;2022-10-16T15:17:50;9.70;;;6.25;;
35993;SDS011;22066;54.274;18.578;2022-10-16T15:20:22;11.13;;;6.88;;
35993;SDS011;22066;54.274;18.578;2022-10-16T15:22:48;12.73;;;6.75;;
35993;SDS011;22066;54.274;18.578;2022-10-16T15:25:25;10.20;;;6.15;;
35993;SDS011;22066;54.274;18.578;2022-10-16T15:27:53;9.68;;;6.30;;
35993;SDS011;22066;54.274;18.578;2022-10-16T15:30:19;14.18;;;7.03;;
35993;SDS011;22066;54.274;18.578;2022-10-16T15:32:45;13.02;;;6.38;;
35993;SDS011;22066;54.274;18.578;2022-10-16T15:35:11;10.05;;;6.13;;
35993;SDS011;22066;54.274;18.578;2022-10-16T15:37:37;12.27;;;6.13;;
35993;SDS011;22066;54.274;18.578;2022-10-16T15:40:03;15.13;;;7.60;;
35993;SDS011;22066;54.274;18.578;2022-10-16T15:42:29;12.52;;;7.22;;
35993;SDS011;22066;54.274;18.578;2022-10-16T15:44:55;13.20;;;7.30;;
35993;SDS011;22066;54.274;18.578;2022-10-16T15:47:21;12.02;;;7.13;;
35993;SDS011;22066;54.274;18.578;2022-10-16T15:49:48;12.95;;;7.25;;
35993;SDS011;22066;54.274;18.578;2022-10-16T15:52:14;15.02;;;7.53;;
35993;SDS011;22066;54.274;18.578;2022-10-16T15:54:40;12.38;;;6.35;;
35993;SDS011;22066;54.274;18.578;2022-10-16T15:57:06;11.70;;;7.25;;
35993;SDS011;22066;54.274;18.578;2022-10-16T15:59:32;15.43;;;7.55;;
35993;SDS011;22066;54.274;18.578;2022-10-16T16:01:58;11.93;;;6.57;;
35993;SDS011;22066;54.274;18.578;2022-10-16T16:04:24;11.93;;;7.50;;
35993;SDS011;22066;54.274;18.578;2022-10-16T16:06:50;12.13;;;8.55;;
35993;SDS011;22066;54.274;18.578;2022-10-16T16:09:16;15.23;;;11.80;;
35993;SDS011;22066;54.274;18.578;2022-10-16T16:11:43;15.18;;;9.52;;
35993;SDS011;22066;54.274;18.578;2022-10-16T16:14:10;28.17;;;18.00;;
35993;SDS011;22066;54.274;18.578;2022-10-16T16:16:38;15.57;;;10.82;;
35993;SDS011;22066;54.274;18.578;2022-10-16T16:19:04;15.57;;;8.82;;
35993;SDS011;22066;54.274;18.578;2022-10-16T16:21:31;14.40;;;8.95;;
35993;SDS011;22066;54.274;18.578;2022-10-16T16:23:57;13.88;;;7.50;;
35993;SDS011;22066;54.274;18.578;2022-10-16T16:26:24;12.85;;;8.10;;